Time;durP1;ratioP1;P1;durP2;ratioP2;P2;SDS_P1;SDS_P2;PMS_P1;PMS_P2;Temp;Humidity;BMP_temperature;BMP_pressure;BME280_temperature;BME280_humidity;BME280_pressure;Samples;Min_cycle;Max_cycle;Signal;HPM_P1;HPM_P2
2022/12/08 00:00:46;;;;;;;5.43;2.17;;;2.50;99.90;;;;;;5057970;28;20052;-42
2022/12/08 00:03:12;;;;;;;10.38;2.00;;;2.40;99.90;;;;;;5057709;28;20550;-44
2022/12/08 00:11:12;;;;;;;4.75;0.90;;;2.20;99.90;;;;;;5056045;28;20055;-43
2022/12/08 00:13:37;;;;;;;6.00;1.13;;;2.20;99.90;;;;;;5044907;28;20074;-42
2022/12/08 00:16:03;;;;;;;5.97;1.60;;;2.20;99.90;;;;;;5057632;28;20040;-46
2022/12/08 00:18:29;;;;;;;6.30;1.02;;;2.20;99.90;;;;;;5056487;28;20477;-44
2022/12/08 00:20:58;;;;;;;5.97;1.02;;;2.20;99.90;;;;;;5055696;28;20240;-46
2022/12/08 00:23:25;;;;;;;5.10;1.13;;;2.20;99.90;;;;;;5043258;28;20056;-44
2022/12/08 00:25:50;;;;;;;5.72;1.00;;;2.20;99.90;;;;;;5057660;28;20117;-44
2022/12/08 00:28:16;;;;;;;4.00;1.10;;;2.30;99.90;;;;;;5057534;28;20461;-42
2022/12/08 00:30:42;;;;;;;5.97;1.65;;;2.30;99.90;;;;;;5057886;28;20056;-44
2022/12/08 00:33:09;;;;;;;7.60;2.03;;;2.30;99.90;;;;;;5055280;28;20428;-43
2022/12/08 00:35:34;;;;;;;3.55;1.20;;;2.40;99.90;;;;;;5057292;28;20052;-45
2022/12/08 00:38:00;;;;;;;10.50;1.30;;;2.30;99.90;;;;;;5056618;28;20055;-48
2022/12/08 00:40:26;;;;;;;6.68;1.50;;;2.40;99.90;;;;;;5056919;28;20076;-44
2022/12/08 00:42:51;;;;;;;4.35;1.23;;;2.30;99.90;;;;;;5056877;28;20876;-45
2022/12/08 00:45:17;;;;;;;8.93;1.33;;;2.30;99.90;;;;;;5056367;28;20414;-44
2022/12/08 00:47:43;;;;;;;7.35;1.40;;;2.40;99.90;;;;;;5057101;28;20044;-42
2022/12/08 00:50:09;;;;;;;3.55;1.10;;;2.30;99.90;;;;;;5055516;28;20057;-45
2022/12/08 00:52:35;;;;;;;4.45;1.08;;;2.40;99.90;;;;;;5056198;28;20060;-46
2022/12/08 00:55:01;;;;;;;8.70;1.30;;;2.40;99.90;;;;;;5056300;28;20068;-47
2022/12/08 00:57:26;;;;;;;4.22;1.08;;;2.40;99.90;;;;;;5050831;28;20048;-43
2022/12/08 00:59:52;;;;;;;9.75;1.55;;;2.50;99.90;;;;;;5057147;28;20446;-44
2022/12/08 01:02:17;;;;;;;5.43;0.90;;;2.40;99.90;;;;;;5056940;28;20052;-46
2022/12/08 01:04:43;;;;;;;7.63;1.48;;;2.50;99.90;;;;;;5056264;28;20110;-45
2022/12/08 01:07:09;;;;;;;4.10;1.58;;;2.50;99.90;;;;;;5056315;28;20469;-47
2022/12/08 01:09:34;;;;;;;7.53;1.10;;;2.60;99.90;;;;;;5057021;28;20131;-46
2022/12/08 01:12:00;;;;;;;7.10;2.28;;;2.60;99.90;;;;;;5042998;28;20056;-45
2022/12/08 01:14:26;;;;;;;6.25;1.27;;;2.70;99.90;;;;;;5055485;28;20101;-45
2022/12/08 01:16:52;;;;;;;7.95;1.33;;;2.70;99.90;;;;;;5075937;28;20092;-44
2022/12/08 01:19:17;;;;;;;6.88;2.72;;;2.80;99.90;;;;;;5053871;28;20156;-49
2022/12/08 01:21:44;;;;;;;6.55;1.30;;;2.80;99.90;;;;;;5068234;28;20122;-44
2022/12/08 01:24:18;;;;;;;5.65;1.30;;;2.80;99.90;;;;;;5052150;28;20357;-49
2022/12/08 01:26:44;;;;;;;8.55;1.20;;;2.80;99.90;;;;;;5043357;28;20067;-43
2022/12/08 01:29:10;;;;;;;7.43;1.20;;;2.80;99.90;;;;;;5056739;28;20192;-48
2022/12/08 01:31:36;;;;;;;5.78;1.23;;;2.90;99.90;;;;;;5056709;28;20415;-43
2022/12/08 01:34:02;;;;;;;3.67;0.93;;;2.90;99.90;;;;;;5054667;28;20134;-43
2022/12/08 01:36:30;;;;;;;5.88;1.20;;;2.90;99.90;;;;;;5056309;28;20052;-43
2022/12/08 01:38:58;;;;;;;6.95;1.80;;;2.80;99.90;;;;;;5056440;28;20411;-43
2022/12/08 01:41:27;;;;;;;4.75;1.13;;;2.80;99.90;;;;;;5056561;28;20141;-43
2022/12/08 01:44:17;;;;;;;3.55;0.70;;;2.70;99.90;;;;;;5055962;28;20094;-48
2022/12/08 01:46:44;;;;;;;3.53;0.77;;;2.70;99.90;;;;;;5042032;28;20405;-43
2022/12/08 01:49:19;;;;;;;4.95;0.90;;;2.60;99.90;;;;;;5032578;28;20144;-47
2022/12/08 01:52:03;;;;;;;3.15;0.60;;;2.60;99.90;;;;;;5033169;28;20608;-44
2022/12/08 01:54:33;;;;;;;2.60;0.63;;;2.60;99.90;;;;;;5021973;28;20057;-47
2022/12/08 01:57:06;;;;;;;3.42;1.05;;;2.50;99.90;;;;;;5016357;28;20564;-48
2022/12/08 01:59:40;;;;;;;3.65;0.82;;;2.50;99.90;;;;;;5032883;28;20055;-43
2022/12/08 02:02:07;;;;;;;4.55;1.10;;;2.50;99.90;;;;;;5016186;28;20671;-44
2022/12/08 02:04:33;;;;;;;5.15;0.80;;;2.30;99.90;;;;;;5032174;28;20060;-43
2022/12/08 02:06:59;;;;;;;5.60;0.80;;;2.40;99.90;;;;;;5032911;28;20514;-43
2022/12/08 02:09:24;;;;;;;5.97;0.68;;;2.30;99.90;;;;;;5033323;28;20139;-46
2022/12/08 02:11:52;;;;;;;3.28;1.00;;;2.30;99.90;;;;;;5032670;28;20683;-43
2022/12/08 02:14:18;;;;;;;2.17;0.73;;;2.30;99.90;;;;;;5016062;28;20098;-43
2022/12/08 02:17:13;;;;;;;4.25;0.88;;;2.30;99.90;;;;;;5032697;28;20053;-42
2022/12/08 02:20:17;;;;;;;8.02;1.17;;;2.40;99.90;;;;;;5008290;28;20041;-41
2022/12/08 02:23:07;;;;;;;5.45;1.02;;;2.40;99.90;;;;;;5022330;28;20142;-43
2022/12/08 02:26:09;;;;;;;5.10;1.20;;;2.50;99.90;;;;;;5056404;28;20067;-46
2022/12/08 02:29:04;;;;;;;3.25;1.15;;;2.50;99.90;;;;;;5054806;28;20053;-52
2022/12/08 02:31:35;;;;;;;5.95;1.15;;;2.60;99.90;;;;;;5055653;28;20079;-47
2022/12/08 02:34:16;;;;;;;7.60;1.30;;;2.60;99.90;;;;;;5055519;28;20402;-45
2022/12/08 02:36:57;;;;;;;2.67;0.75;;;2.60;99.90;;;;;;5055893;28;20055;-47
2022/12/08 02:39:48;;;;;;;5.22;0.80;;;2.50;99.90;;;;;;5056647;28;20136;-45
2022/12/08 02:42:24;;;;;;;2.63;0.60;;;2.40;99.90;;;;;;5044980;28;20056;-44
2022/12/08 02:45:02;;;;;;;4.03;0.90;;;2.30;99.90;;;;;;5053603;28;20647;-48
2022/12/08 02:47:31;;;;;;;5.82;0.90;;;2.20;99.90;;;;;;5058532;28;20048;-43
2022/12/08 02:49:57;;;;;;;5.57;0.88;;;2.30;99.90;;;;;;5059857;28;20044;-43
2022/12/08 02:52:23;;;;;;;3.45;0.77;;;2.20;99.90;;;;;;5056453;28;20127;-42
2022/12/08 02:55:05;;;;;;;3.92;1.17;;;2.30;99.90;;;;;;5057886;28;20055;-42
2022/12/08 02:58:02;;;;;;;6.97;1.92;;;2.30;99.90;;;;;;5059065;28;20069;-49
2022/12/08 03:00:37;;;;;;;6.38;2.00;;;2.30;99.90;;;;;;5054726;28;20044;-46
2022/12/08 03:03:41;;;;;;;5.47;1.30;;;2.30;99.90;;;;;;5056843;28;20048;-43
2022/12/08 03:06:13;;;;;;;7.25;2.17;;;2.30;99.90;;;;;;5054703;28;20099;-43
2022/12/08 03:08:58;;;;;;;5.28;1.23;;;2.40;99.90;;;;;;5057616;28;20395;-42
2022/12/08 03:11:32;;;;;;;4.85;1.63;;;2.50;99.90;;;;;;5057470;28;20133;-42
2022/12/08 03:14:00;;;;;;;3.90;0.88;;;2.50;99.90;;;;;;5049454;28;20491;-42
2022/12/08 03:16:28;;;;;;;7.63;1.00;;;2.40;99.90;;;;;;5055459;28;20049;-43
2022/12/08 03:19:09;;;;;;;8.00;0.82;;;2.50;99.90;;;;;;5059228;28;20573;-42
2022/12/08 03:21:37;;;;;;;6.68;0.88;;;2.50;99.90;;;;;;5058732;28;20052;-44
2022/12/08 03:24:06;;;;;;;6.97;0.90;;;2.50;99.90;;;;;;5059008;28;20056;-44
2022/12/08 03:26:58;;;;;;;5.03;0.85;;;2.50;99.90;;;;;;5044505;28;20122;-42
2022/12/08 03:29:24;;;;;;;6.32;0.82;;;2.50;99.90;;;;;;5042980;28;20119;-42
2022/12/08 03:31:54;;;;;;;4.40;0.88;;;2.40;99.90;;;;;;5083426;28;20395;-47
2022/12/08 03:34:24;;;;;;;1.85;0.65;;;2.30;99.90;;;;;;5059356;28;20417;-44
2022/12/08 03:36:50;;;;;;;3.65;0.73;;;2.30;99.90;;;;;;5056693;28;20742;-45
2022/12/08 03:39:15;;;;;;;3.55;0.50;;;2.30;99.90;;;;;;5057477;28;20133;-48
2022/12/08 03:41:41;;;;;;;3.45;0.70;;;2.30;99.90;;;;;;5058457;28;20052;-45
2022/12/08 03:44:07;;;;;;;1.95;0.75;;;2.30;99.90;;;;;;5057790;28;20041;-46
2022/12/08 03:46:32;;;;;;;3.58;1.00;;;2.20;99.90;;;;;;5058095;28;20101;-43
2022/12/08 03:48:58;;;;;;;6.70;1.45;;;2.20;99.90;;;;;;5058570;28;20044;-42
2022/12/08 03:51:24;;;;;;;6.28;0.70;;;2.20;99.90;;;;;;5057140;28;20048;-42
2022/12/08 03:53:50;;;;;;;6.15;0.85;;;2.10;99.90;;;;;;5057381;28;20435;-46
2022/12/08 03:56:26;;;;;;;4.20;1.02;;;2.20;99.90;;;;;;5057557;28;20047;-44
2022/12/08 03:58:53;;;;;;;5.90;0.80;;;2.10;99.90;;;;;;5056751;28;20058;-43
2022/12/08 04:01:19;;;;;;;1.80;0.57;;;2.00;99.90;;;;;;5057405;28;20219;-42
2022/12/08 04:03:45;;;;;;;4.57;0.73;;;2.00;99.90;;;;;;5056995;28;20555;-46
2022/12/08 04:06:11;;;;;;;3.30;0.88;;;2.00;99.90;;;;;;5056173;28;20113;-48
2022/12/08 04:08:37;;;;;;;3.33;0.80;;;1.90;99.90;;;;;;5054549;28;20126;-45
2022/12/08 04:11:05;;;;;;;1.63;0.60;;;1.90;99.90;;;;;;5057755;28;20531;-43
2022/12/08 04:13:31;;;;;;;2.45;0.80;;;1.90;99.90;;;;;;5057507;28;20127;-43
2022/12/08 04:15:56;;;;;;;4.78;1.02;;;2.00;99.90;;;;;;5058349;28;20539;-42
2022/12/08 04:18:22;;;;;;;4.43;1.40;;;1.90;99.90;;;;;;5058156;28;20049;-43
2022/12/08 04:20:48;;;;;;;4.88;0.95;;;2.00;99.90;;;;;;5057474;28;20406;-47
2022/12/08 04:23:13;;;;;;;18.90;7.78;;;1.90;99.90;;;;;;5056182;28;20491;-43
2022/12/08 04:25:39;;;;;;;13.52;6.10;;;2.00;99.90;;;;;;5057149;28;20447;-43
2022/12/08 04:28:05;;;;;;;16.65;8.82;;;1.90;99.90;;;;;;5057093;28;20110;-44
2022/12/08 04:30:31;;;;;;;30.83;14.70;;;1.90;99.90;;;;;;5057278;28;20151;-49
2022/12/08 04:32:57;;;;;;;22.40;12.30;;;1.80;99.90;;;;;;5056311;28;20041;-45
2022/12/08 04:35:23;;;;;;;15.95;9.15;;;1.90;99.90;;;;;;5057260;28;20125;-45
2022/12/08 04:37:49;;;;;;;21.05;12.57;;;1.90;99.90;;;;;;5060288;28;20501;-42
2022/12/08 04:40:14;;;;;;;15.68;8.43;;;1.90;99.90;;;;;;5049051;28;20525;-42
2022/12/08 04:42:40;;;;;;;12.40;7.65;;;1.90;99.90;;;;;;5048492;28;20048;-49
2022/12/08 04:45:06;;;;;;;8.15;2.63;;;1.80;99.90;;;;;;5055814;28;20087;-44
2022/12/08 04:47:32;;;;;;;7.47;1.52;;;1.80;99.90;;;;;;5056933;28;20048;-43
2022/12/08 04:49:58;;;;;;;4.43;1.60;;;1.90;99.90;;;;;;5056424;28;20063;-44
2022/12/08 04:52:24;;;;;;;5.07;1.20;;;1.90;99.90;;;;;;5055990;28;20053;-43
2022/12/08 04:54:49;;;;;;;3.42;1.70;;;2.00;99.90;;;;;;5057216;28;20167;-43
2022/12/08 04:57:15;;;;;;;6.78;1.27;;;1.90;99.90;;;;;;5056530;28;20415;-47
2022/12/08 04:59:41;;;;;;;3.40;1.10;;;2.00;99.90;;;;;;5055872;28;20127;-46
2022/12/08 05:02:07;;;;;;;6.57;1.55;;;1.90;99.90;;;;;;5055239;28;20050;-45
2022/12/08 05:04:32;;;;;;;3.03;1.02;;;1.80;99.90;;;;;;5054262;28;20079;-47
2022/12/08 05:06:58;;;;;;;4.43;1.20;;;2.00;99.90;;;;;;5055262;28;20435;-43
2022/12/08 05:09:24;;;;;;;3.60;0.80;;;1.90;99.90;;;;;;5056178;28;20056;-45
2022/12/08 05:11:49;;;;;;;1.67;0.80;;;2.00;99.90;;;;;;5056967;28;20048;-42
2022/12/08 05:14:17;;;;;;;3.78;1.20;;;2.00;99.90;;;;;;5040908;28;20063;-45
2022/12/08 05:16:43;;;;;;;4.75;1.15;;;2.00;99.90;;;;;;5056186;28;20502;-44
2022/12/08 05:19:09;;;;;;;4.22;1.02;;;2.10;99.90;;;;;;5055334;28;20057;-42
2022/12/08 05:21:35;;;;;;;2.70;0.90;;;2.00;99.90;;;;;;5055564;28;20573;-43
2022/12/08 05:24:00;;;;;;;2.50;1.00;;;2.20;99.90;;;;;;5054217;28;20072;-42
2022/12/08 05:26:26;;;;;;;2.28;0.80;;;2.10;99.90;;;;;;5056561;28;20476;-45
2022/12/08 05:28:52;;;;;;;6.07;0.80;;;2.20;99.90;;;;;;5056235;28;20052;-45
2022/12/08 05:31:17;;;;;;;3.80;0.98;;;2.20;99.90;;;;;;5049257;28;20650;-45
2022/12/08 05:33:44;;;;;;;5.40;0.98;;;2.20;99.90;;;;;;5046682;28;20502;-45
2022/12/08 05:36:14;;;;;;;5.55;0.90;;;2.20;99.90;;;;;;5039818;28;20532;-45
2022/12/08 05:38:40;;;;;;;1.77;0.90;;;2.10;99.90;;;;;;5054592;28;20052;-45
2022/12/08 05:41:08;;;;;;;4.47;0.93;;;2.20;99.90;;;;;;5055765;28;20124;-47
2022/12/08 05:43:34;;;;;;;3.38;0.60;;;2.10;99.90;;;;;;5055124;28;20049;-44
2022/12/08 05:46:00;;;;;;;4.88;0.90;;;2.20;99.90;;;;;;5055663;28;20135;-44
2022/12/08 05:48:25;;;;;;;4.63;0.85;;;2.20;99.90;;;;;;5055664;28;20460;-43
2022/12/08 05:50:51;;;;;;;3.40;0.75;;;2.10;99.90;;;;;;5053913;28;20052;-45
2022/12/08 05:53:18;;;;;;;3.72;0.80;;;2.20;99.90;;;;;;5045472;28;20120;-46
2022/12/08 05:55:44;;;;;;;4.75;0.77;;;2.10;99.90;;;;;;5044675;28;20487;-42
2022/12/08 05:58:15;;;;;;;4.28;1.15;;;2.20;99.90;;;;;;5053949;28;20434;-45
2022/12/08 06:00:42;;;;;;;5.53;0.80;;;2.10;99.90;;;;;;5056156;28;20555;-43
2022/12/08 06:03:09;;;;;;;6.10;0.95;;;2.20;99.90;;;;;;5053335;28;20141;-44
2022/12/08 06:05:35;;;;;;;7.80;1.20;;;2.10;99.90;;;;;;5056277;28;20558;-45
2022/12/08 06:08:01;;;;;;;4.35;0.88;;;2.20;99.90;;;;;;5055268;28;20135;-42
2022/12/08 06:10:27;;;;;;;6.03;1.10;;;2.20;99.90;;;;;;5056348;28;20049;-45
2022/12/08 06:12:52;;;;;;;3.85;1.23;;;2.10;99.90;;;;;;5081378;28;20055;-45
2022/12/08 06:15:18;;;;;;;6.45;0.77;;;2.20;99.90;;;;;;5055839;28;20218;-45
2022/12/08 06:17:44;;;;;;;6.60;1.10;;;2.20;99.90;;;;;;5053803;28;20144;-43
2022/12/08 06:20:09;;;;;;;6.38;1.40;;;2.30;99.90;;;;;;5055404;28;20044;-42
2022/12/08 06:22:35;;;;;;;5.70;1.45;;;2.20;99.90;;;;;;5053987;28;20067;-47
2022/12/08 06:25:02;;;;;;;5.78;1.25;;;2.10;99.90;;;;;;5050464;28;20047;-48
2022/12/08 06:27:27;;;;;;;4.53;1.63;;;2.10;99.90;;;;;;5060149;28;20049;-43
2022/12/08 06:29:53;;;;;;;5.60;1.58;;;2.20;99.90;;;;;;5059414;28;20044;-44
2022/12/08 06:32:18;;;;;;;7.07;2.10;;;2.10;99.90;;;;;;5058684;28;20044;-44
2022/12/08 06:34:44;;;;;;;7.05;1.92;;;2.10;99.90;;;;;;5059149;28;20162;-43
2022/12/08 06:37:10;;;;;;;12.27;2.20;;;2.10;99.90;;;;;;5059536;28;20055;-45
2022/12/08 06:39:36;;;;;;;4.30;2.15;;;2.00;99.90;;;;;;5059345;28;20149;-44
2022/12/08 06:44:46;;;;;;;5.97;2.40;;;1.90;99.90;;;;;;5058914;28;20064;-46
2022/12/08 06:47:12;;;;;;;4.40;1.92;;;1.90;99.90;;;;;;5059687;28;20400;-47
2022/12/08 06:49:37;;;;;;;8.27;2.08;;;1.90;99.90;;;;;;5058198;28;20203;-44
2022/12/08 06:52:03;;;;;;;8.75;2.05;;;2.00;99.90;;;;;;5042633;28;20060;-45
2022/12/08 06:54:29;;;;;;;6.75;1.50;;;1.90;99.90;;;;;;5058781;28;20056;-47
2022/12/08 06:56:55;;;;;;;7.13;2.22;;;1.90;99.90;;;;;;5059020;28;20476;-42
2022/12/08 06:59:20;;;;;;;7.25;1.50;;;1.80;99.90;;;;;;5058409;28;20036;-44
2022/12/08 07:01:46;;;;;;;3.15;1.35;;;1.80;99.90;;;;;;5058773;28;20048;-44
2022/12/08 07:04:12;;;;;;;5.25;1.40;;;1.80;99.90;;;;;;5058335;28;20406;-44
2022/12/08 07:06:37;;;;;;;5.25;2.53;;;1.90;99.90;;;;;;5058261;28;20041;-43
2022/12/08 07:09:03;;;;;;;3.20;1.23;;;1.80;99.90;;;;;;5046395;28;20055;-44
2022/12/08 07:11:29;;;;;;;8.88;1.60;;;1.70;99.90;;;;;;5091992;28;20106;-47
2022/12/08 07:13:56;;;;;;;5.80;1.40;;;1.70;99.90;;;;;;5057937;28;20070;-47
2022/12/08 07:16:22;;;;;;;9.48;1.55;;;1.70;99.90;;;;;;5058277;28;20083;-43
2022/12/08 07:18:48;;;;;;;5.18;1.38;;;1.60;99.90;;;;;;5046136;28;20048;-41
2022/12/08 07:21:15;;;;;;;8.38;2.03;;;1.50;99.90;;;;;;5040409;28;20048;-44
2022/12/08 07:23:41;;;;;;;7.45;2.03;;;1.50;99.90;;;;;;5058376;28;20080;-46
2022/12/08 07:26:09;;;;;;;5.43;1.70;;;1.50;99.90;;;;;;5058508;28;20543;-44
2022/12/08 07:28:38;;;;;;;6.78;2.20;;;1.40;99.90;;;;;;5058465;28;20059;-44
2022/12/08 07:31:04;;;;;;;7.03;2.08;;;1.40;99.90;;;;;;5058154;28;20051;-46
2022/12/08 07:33:31;;;;;;;4.57;2.08;;;1.30;99.90;;;;;;5057801;28;20127;-46
2022/12/08 07:35:58;;;;;;;6.32;2.80;;;1.20;99.90;;;;;;5058713;28;20048;-45
2022/12/08 07:38:25;;;;;;;6.05;2.20;;;1.20;99.90;;;;;;5053290;28;20049;-48
2022/12/08 07:40:51;;;;;;;7.57;2.58;;;1.10;99.90;;;;;;5057527;28;20122;-44
2022/12/08 07:43:17;;;;;;;8.68;2.97;;;1.20;99.90;;;;;;5057643;28;20055;-46
2022/12/08 07:45:43;;;;;;;3.95;1.85;;;1.10;99.90;;;;;;5058834;28;20045;-43
2022/12/08 07:48:09;;;;;;;9.68;3.25;;;1.00;99.90;;;;;;5057819;28;20163;-45
2022/12/08 07:50:35;;;;;;;8.07;2.72;;;1.10;99.90;;;;;;5057938;28;20047;-45
2022/12/08 07:53:00;;;;;;;6.18;3.20;;;0.90;99.90;;;;;;5049904;28;20501;-45
2022/12/08 07:55:26;;;;;;;8.23;3.20;;;0.90;99.90;;;;;;5058309;28;20532;-43
2022/12/08 07:57:52;;;;;;;6.72;3.13;;;0.90;99.90;;;;;;5057453;28;20110;-44
2022/12/08 08:00:18;;;;;;;7.75;2.92;;;0.90;99.90;;;;;;5057773;28;20080;-43
2022/12/08 08:02:44;;;;;;;6.13;2.40;;;0.90;99.90;;;;;;5057292;28;20053;-46
2022/12/08 08:05:13;;;;;;;5.03;2.50;;;0.90;99.90;;;;;;5054088;28;20807;-45
2022/12/08 08:07:42;;;;;;;4.97;3.78;;;0.80;99.90;;;;;;5057256;28;20056;-43
2022/12/08 08:10:08;;;;;;;11.77;4.57;;;0.90;99.90;;;;;;5058416;28;20083;-43
2022/12/08 08:12:35;;;;;;;4.13;2.47;;;0.80;99.90;;;;;;5057220;28;20463;-45
2022/12/08 08:15:02;;;;;;;5.25;2.10;;;0.80;99.90;;;;;;5058744;28;20135;-44
2022/12/08 08:17:28;;;;;;;7.88;2.40;;;0.80;99.90;;;;;;5055257;28;20506;-43
2022/12/08 08:19:54;;;;;;;8.50;2.22;;;0.80;99.90;;;;;;5051619;28;20371;-44
2022/12/08 08:22:19;;;;;;;6.72;2.35;;;0.70;99.90;;;;;;5049379;28;20513;-46
2022/12/08 08:24:45;;;;;;;3.63;2.22;;;0.70;99.90;;;;;;5057783;28;20044;-47
2022/12/08 08:27:11;;;;;;;6.07;2.40;;;0.70;99.90;;;;;;5062916;28;20109;-46
2022/12/08 08:29:37;;;;;;;6.45;2.05;;;0.80;99.90;;;;;;5056981;28;20040;-44
2022/12/08 08:32:02;;;;;;;9.40;2.70;;;0.80;99.90;;;;;;5056291;28;20056;-45
2022/12/08 08:34:28;;;;;;;7.93;2.47;;;0.70;99.90;;;;;;5056909;28;20174;-42
2022/12/08 08:36:54;;;;;;;7.20;2.13;;;0.80;99.90;;;;;;5055800;28;20087;-46
2022/12/08 08:39:19;;;;;;;6.80;2.08;;;0.70;99.90;;;;;;5055319;28;20087;-46
2022/12/08 08:41:45;;;;;;;5.93;2.03;;;0.80;99.90;;;;;;5057276;28;20415;-46
2022/12/08 08:44:13;;;;;;;7.85;2.38;;;0.80;99.90;;;;;;5056098;28;20044;-45
2022/12/08 08:46:39;;;;;;;10.60;4.63;;;0.90;99.90;;;;;;5056068;28;20052;-44
2022/12/08 08:49:05;;;;;;;8.98;4.35;;;0.80;99.90;;;;;;5057864;28;20076;-46
2022/12/08 08:51:31;;;;;;;8.32;2.55;;;0.90;99.90;;;;;;5055361;28;20162;-47
2022/12/08 08:53:57;;;;;;;8.93;2.67;;;0.80;99.90;;;;;;5056486;28;20055;-45
2022/12/08 08:56:23;;;;;;;6.43;1.83;;;0.90;99.90;;;;;;5057036;28;20109;-44
2022/12/08 08:58:50;;;;;;;7.03;1.85;;;0.80;99.90;;;;;;5050084;28;20550;-43
2022/12/08 09:01:19;;;;;;;6.70;2.42;;;0.70;99.90;;;;;;5048689;28;20090;-46
2022/12/08 09:03:46;;;;;;;7.38;2.90;;;0.80;99.90;;;;;;5056060;28;20510;-45
2022/12/08 09:06:13;;;;;;;8.57;2.83;;;0.70;99.90;;;;;;5056855;28;20135;-45
2022/12/08 09:08:39;;;;;;;5.82;2.50;;;0.70;99.90;;;;;;5055205;28;20045;-45
2022/12/08 09:11:05;;;;;;;11.43;2.75;;;0.80;99.90;;;;;;5051804;28;20045;-48
2022/12/08 09:13:30;;;;;;;7.05;2.58;;;0.90;99.90;;;;;;5055852;28;20095;-46
2022/12/08 09:15:56;;;;;;;7.50;2.80;;;1.10;99.90;;;;;;5057798;28;20123;-43
2022/12/08 09:18:22;;;;;;;5.88;2.97;;;1.20;99.90;;;;;;5056585;28;20052;-46
2022/12/08 09:20:47;;;;;;;9.40;3.30;;;1.30;99.90;;;;;;5056971;28;20368;-43
2022/12/08 09:23:13;;;;;;;5.63;2.40;;;1.30;99.90;;;;;;5054388;28;20040;-43
2022/12/08 09:25:43;;;;;;;5.82;2.40;;;1.50;99.90;;;;;;5056850;28;20120;-44
2022/12/08 09:28:09;;;;;;;4.22;1.85;;;1.50;99.90;;;;;;5056289;28;20056;-46
2022/12/08 09:30:34;;;;;;;8.18;2.20;;;1.60;99.90;;;;;;5038389;28;20090;-44
2022/12/08 09:33:00;;;;;;;16.13;2.42;;;1.60;99.90;;;;;;5053178;28;20387;-45
2022/12/08 09:35:26;;;;;;;12.27;2.15;;;1.60;99.90;;;;;;5055967;28;20049;-44
2022/12/08 09:37:51;;;;;;;10.40;2.30;;;1.50;99.90;;;;;;5056264;28;20147;-44
2022/12/08 09:40:20;;;;;;;4.80;2.30;;;1.60;99.90;;;;;;5052096;28;20040;-45
2022/12/08 09:42:52;;;;;;;5.97;2.38;;;1.60;99.90;;;;;;5056553;28;20146;-46
2022/12/08 09:45:20;;;;;;;5.93;1.65;;;1.80;99.90;;;;;;5057439;28;20067;-45
2022/12/08 09:48:11;;;;;;;7.30;2.05;;;1.80;99.90;;;;;;5057380;28;20059;-44
2022/12/08 09:50:49;;;;;;;6.50;1.60;;;1.90;99.90;;;;;;5044629;28;20154;-45
2022/12/08 09:53:25;;;;;;;7.93;1.33;;;1.90;99.90;;;;;;5047730;28;20506;-45
2022/12/08 09:55:55;;;;;;;5.53;1.60;;;1.90;99.90;;;;;;5055601;28;20080;-47
2022/12/08 09:58:47;;;;;;;7.22;1.88;;;1.90;99.90;;;;;;5055877;28;20105;-44
2022/12/08 10:01:13;;;;;;;6.10;1.67;;;1.90;99.90;;;;;;5054470;28;20049;-45
2022/12/08 10:03:40;;;;;;;7.90;2.40;;;2.00;99.90;;;;;;5055728;28;20084;-43
2022/12/08 10:06:23;;;;;;;8.55;2.45;;;2.10;99.90;;;;;;5056535;28;20218;-45
2022/12/08 10:09:09;;;;;;;4.57;1.95;;;2.20;99.90;;;;;;5055347;28;20209;-42
2022/12/08 10:11:37;;;;;;;7.75;1.80;;;2.30;99.90;;;;;;5056750;28;20097;-43
2022/12/08 10:14:11;;;;;;;12.38;5.97;;;2.30;99.90;;;;;;5054404;28;20108;-46
2022/12/08 10:16:40;;;;;;;7.45;2.65;;;2.40;99.90;;;;;;5053812;28;20126;-44
2022/12/08 10:19:17;;;;;;;7.97;1.98;;;2.50;99.90;;;;;;5053541;28;20105;-49
2022/12/08 10:21:44;;;;;;;5.18;2.63;;;2.50;99.90;;;;;;5055495;28;20067;-41
2022/12/08 10:24:36;;;;;;;7.15;3.20;;;2.40;99.90;;;;;;5055000;28;20124;-43
2022/12/08 10:27:02;;;;;;;4.30;1.20;;;2.50;99.90;;;;;;5056013;28;20048;-46
2022/12/08 10:29:28;;;;;;;15.90;5.13;;;2.50;99.90;;;;;;5063277;28;20044;-43
2022/12/08 10:31:57;;;;;;;9.27;1.73;;;2.50;99.90;;;;;;5061192;28;20048;-44
2022/12/08 10:34:23;;;;;;;6.80;1.98;;;2.60;99.90;;;;;;5055835;28;20060;-43
2022/12/08 10:36:55;;;;;;;8.63;1.75;;;2.70;99.90;;;;;;5056431;28;20053;-44
2022/12/08 10:39:32;;;;;;;8.05;4.03;;;2.80;99.90;;;;;;5052132;28;20110;-42
2022/12/08 10:42:01;;;;;;;7.25;3.20;;;2.80;99.90;;;;;;5056279;28;20053;-44
2022/12/08 10:44:27;;;;;;;8.05;2.70;;;2.80;99.90;;;;;;5054008;28;20048;-47
2022/12/08 10:46:53;;;;;;;10.77;3.13;;;2.80;99.90;;;;;;5055725;28;20119;-43
2022/12/08 10:49:31;;;;;;;6.20;1.92;;;2.90;99.90;;;;;;5055451;28;20801;-44
2022/12/08 10:51:57;;;;;;;9.75;2.40;;;2.90;99.90;;;;;;5054127;28;20049;-46
2022/12/08 10:54:34;;;;;;;6.63;1.70;;;3.00;99.90;;;;;;5053965;28;20128;-42
2022/12/08 10:57:00;;;;;;;5.40;2.78;;;3.20;99.90;;;;;;5056169;28;20504;-44
2022/12/08 10:59:26;;;;;;;7.07;3.30;;;3.40;99.90;;;;;;5057551;28;20062;-43
2022/12/08 11:01:54;;;;;;;8.63;1.77;;;3.60;99.90;;;;;;5055152;28;20055;-47
2022/12/08 11:04:34;;;;;;;10.27;2.78;;;3.70;99.90;;;;;;5062924;28;20051;-42
2022/12/08 11:07:00;;;;;;;63.55;29.83;;;4.00;99.90;;;;;;5059648;28;20088;-42
2022/12/08 11:09:37;;;;;;;25.63;17.27;;;4.10;99.90;;;;;;5065024;28;20159;-45
2022/12/08 11:12:22;;;;;;;11.10;7.45;;;4.20;99.90;;;;;;5058407;28;20502;-43
2022/12/08 11:15:01;;;;;;;11.68;4.95;;;4.20;99.90;;;;;;5059053;28;20055;-44
2022/12/08 11:17:34;;;;;;;10.02;3.25;;;4.00;99.90;;;;;;5059573;28;20048;-48
2022/12/08 11:20:00;;;;;;;7.22;2.28;;;3.80;99.90;;;;;;5059289;28;20044;-43
2022/12/08 11:22:31;;;;;;;3.95;2.10;;;3.60;99.90;;;;;;5057860;28;20133;-44
2022/12/08 11:25:09;;;;;;;6.43;3.70;;;3.40;99.90;;;;;;5057686;28;20040;-45
2022/12/08 11:27:42;;;;;;;6.00;4.90;;;3.20;99.90;;;;;;5066858;28;20143;-43
2022/12/08 11:30:28;;;;;;;3.67;0.70;;;3.00;99.90;;;;;;5049196;28;20056;-45
2022/12/08 11:33:02;;;;;;;3.53;0.80;;;2.90;99.90;;;;;;5057782;28;20494;-42
2022/12/08 11:35:33;;;;;;;4.90;1.00;;;2.80;99.90;;;;;;5069390;28;20114;-42
2022/12/08 11:38:09;;;;;;;2.65;0.70;;;2.90;99.90;;;;;;5058872;28;20219;-46
2022/12/08 11:40:38;;;;;;;2.28;0.80;;;2.90;99.90;;;;;;5045788;28;20077;-44
2022/12/08 11:43:30;;;;;;;4.88;0.95;;;2.90;99.90;;;;;;5057603;28;20678;-43
2022/12/08 11:45:59;;;;;;;9.25;1.42;;;2.90;99.90;;;;;;5070965;28;20047;-47
2022/12/08 11:48:35;;;;;;;5.97;0.73;;;2.90;99.90;;;;;;5064992;28;20081;-46
2022/12/08 11:51:04;;;;;;;5.45;1.60;;;3.00;99.90;;;;;;5075375;28;20052;-44
2022/12/08 11:53:41;;;;;;;5.50;1.40;;;3.00;99.90;;;;;;5062647;28;20044;-44
2022/12/08 11:56:39;;;;;;;8.32;0.90;;;3.10;99.90;;;;;;5068496;28;20498;-47
2022/12/08 11:59:40;;;;;;;4.35;1.20;;;3.20;99.90;;;;;;5051373;28;20059;-42
2022/12/08 12:02:13;;;;;;;7.75;2.60;;;3.30;99.90;;;;;;4975148;28;20058;-46
2022/12/08 12:04:42;;;;;;;5.05;1.50;;;3.20;99.90;;;;;;4976163;28;20425;-45
2022/12/08 12:07:22;;;;;;;3.15;1.38;;;3.30;99.90;;;;;;4976160;28;20702;-46
2022/12/08 12:10:15;;;;;;;6.03;1.23;;;3.30;99.90;;;;;;4970967;28;20058;-45
2022/12/08 12:12:44;;;;;;;3.33;1.00;;;3.40;99.90;;;;;;4958710;28;20055;-44
2022/12/08 12:15:33;;;;;;;5.50;1.52;;;3.50;99.90;;;;;;4958818;28;20062;-48
2022/12/08 12:18:20;;;;;;;5.22;1.65;;;3.50;99.90;;;;;;4943069;28;20055;-46
2022/12/08 12:21:09;;;;;;;3.45;1.67;;;3.60;99.90;;;;;;4960723;28;20042;-46
2022/12/08 12:23:37;;;;;;;7.20;1.95;;;3.70;99.90;;;;;;4943654;28;20082;-46
2022/12/08 12:26:06;;;;;;;6.38;1.23;;;3.70;99.90;;;;;;4959331;28;20054;-48
2022/12/08 12:28:42;;;;;;;15.00;11.70;;;3.80;99.90;;;;;;4942929;28;20053;-46
2022/12/08 12:31:17;;;;;;;17.60;11.30;;;3.70;99.90;;;;;;4959494;28;20493;-43
2022/12/08 12:33:45;;;;;;;13.40;7.32;;;3.80;99.90;;;;;;4958599;28;20686;-50
2022/12/08 12:36:12;;;;;;;8.48;4.85;;;3.80;99.90;;;;;;4961955;28;20080;-50
2022/12/08 12:39:00;;;;;;;8.20;5.78;;;3.80;99.90;;;;;;5049525;28;20056;-45
2022/12/08 12:41:45;;;;;;;9.18;1.63;;;3.90;99.90;;;;;;5056574;28;20036;-44
2022/12/08 12:44:13;;;;;;;8.07;1.75;;;4.00;99.90;;;;;;5054851;28;20049;-46
2022/12/08 12:46:45;;;;;;;8.23;2.10;;;4.10;99.90;;;;;;5056199;28;20469;-44
2022/12/08 12:49:39;;;;;;;4.70;2.80;;;4.20;99.90;;;;;;5055061;28;20558;-46
2022/12/08 12:52:24;;;;;;;;;;;4.30;99.90;;;;;;5056155;28;20054;-46
2022/12/08 12:54:50;;;;;;;3.17;1.98;;;4.30;99.90;;;;;;5057610;28;19930;-43
2022/12/08 12:57:18;;;;;;;6.88;1.33;;;4.30;99.90;;;;;;5055251;28;20522;-46
2022/12/08 12:59:46;;;;;;;5.88;1.20;;;4.40;99.90;;;;;;5057029;28;20052;-46
2022/12/08 13:02:17;;;;;;;9.48;2.35;;;4.40;99.90;;;;;;5055462;28;20084;-44
2022/12/08 13:05:00;;;;;;;7.65;1.40;;;4.50;99.90;;;;;;5055134;28;20129;-47
2022/12/08 13:07:34;;;;;;;5.25;1.13;;;4.40;99.90;;;;;;5054422;28;20097;-46
2022/12/08 13:10:16;;;;;;;4.32;0.73;;;4.50;99.90;;;;;;5054875;28;20467;-47
2022/12/08 13:12:44;;;;;;;4.85;0.82;;;4.40;99.90;;;;;;5055428;28;20052;-45
2022/12/08 13:15:19;;;;;;;3.40;0.77;;;4.40;99.90;;;;;;5069809;28;20063;-44
2022/12/08 13:17:47;;;;;;;11.68;1.38;;;4.30;99.90;;;;;;5050554;28;20060;-47